Portada
METAR-TAF:

METAR-TAF

Aeropuertos :

Ponta Delgada, Azores, Portugal

Aeropuerto Juan Pablo II

latitud: 37-44N, longitud: 025-42W, altitud: 71 m

Observación

El informe se hizo hace 32 minutos, a las 09:00 UTC
Viento 15 kt del sureste
Temperatura 15°C
Humedad 63%
Presión 1023 hPa
Visibilidad 10 km o más
Escasas nubes a una altura de 2000 ft
Cielo nuboso a una altura de 4000 ft

METAR: LPPD 200900Z 14015KT 9999 FEW020 BKN040 15/08 Q1023

Hora: 08:32 (09:32 UTC)

Pronóstico

El informe se hizo hace 4 horas y 32 minutos, a las 05:00 UTC
Pronóstico válido del 20 a las 06 UTC al 21 a las 06 UTC
Viento 15 kt del sur-sureste
Visibilidad 10 km o más
Nubes dispersas a una altura de 2000 ft
Temporalmente
del 20 a las 06 UTC al 21 a las 06 UTC
Escasas nubes a una altura de 1800 ft
Cielo nuboso a una altura de 4000 ft

TAF: LPPD 200500Z 2006/2106 15015KT 9999 SCT020 TEMPO 2006/2106 FEW018 BKN040

Observaciones y pronósticos meteorológicos de más de 4000 aeropuertos (mensajes METAR y TAF).

Los puntos amarillos y rojos representan las estaciones disponibles.

Ponga el ratón en el punto deseado para ver el nombre de la estación.

Haga clic para ver las observaciones y los pronósticos meteorológicos.

Para cambiar el mapa : haga clic en los botones verdes con una cruz de color negro para hacer un zoom, en el botón verde con un guión para alejar o en las flechas verdes para mapas adyacentes.


METAR-TAF: